sensor_id;sensor_type;location;lat;lon;timestamp;P1;P2;P0
44871;PMS7003;30602;51.060;17.226;2023-03-26T00:02:35;4;4;3
44871;PMS7003;30602;51.060;17.226;2023-03-26T00:06:05;4;4;3
44871;PMS7003;30602;51.060;17.226;2023-03-26T00:09:33;4;4;4
44871;PMS7003;30602;51.060;17.226;2023-03-26T00:12:56;5;4;4
44871;PMS7003;30602;51.060;17.226;2023-03-26T00:16:35;5;4;4
44871;PMS7003;30602;51.060;17.226;2023-03-26T00:20:54;4;3;3
44871;PMS7003;30602;51.060;17.226;2023-03-26T00:24:28;2;2;2
44871;PMS7003;30602;51.060;17.226;2023-03-26T00:28:33;5;4;3
44871;PMS7003;30602;51.060;17.226;2023-03-26T00:32:15;5;4;2
44871;PMS7003;30602;51.060;17.226;2023-03-26T00:35:40;5;4;3
44871;PMS7003;30602;51.060;17.226;2023-03-26T00:39:25;4;4;3
44871;PMS7003;30602;51.060;17.226;2023-03-26T00:42:52;5;5;3
44871;PMS7003;30602;51.060;17.226;2023-03-26T00:46:15;6;6;5
44871;PMS7003;30602;51.060;17.226;2023-03-26T00:49:50;5;5;4
44871;PMS7003;30602;51.060;17.226;2023-03-26T00:53:53;6;5;4
44871;PMS7003;30602;51.060;17.226;2023-03-26T00:57:37;4;4;3
44871;PMS7003;30602;51.060;17.226;2023-03-26T01:01:21;4;4;4
44871;PMS7003;30602;51.060;17.226;2023-03-26T01:09:39;7;7;6
44871;PMS7003;30602;51.060;17.226;2023-03-26T01:13:08;8;7;6
44871;PMS7003;30602;51.060;17.226;2023-03-26T01:20:19;6;6;6
44871;PMS7003;30602;51.060;17.226;2023-03-26T01:24:19;8;8;7
44871;PMS7003;30602;51.060;17.226;2023-03-26T01:27:57;6;6;5
44871;PMS7003;30602;51.060;17.226;2023-03-26T01:31:36;9;8;6
44871;PMS7003;30602;51.060;17.226;2023-03-26T01:47:34;8;8;7
44871;PMS7003;30602;51.060;17.226;2023-03-26T01:50:57;7;6;5
44871;PMS7003;30602;51.060;17.226;2023-03-26T01:55:13;7;7;6
44871;PMS7003;30602;51.060;17.226;2023-03-26T02:06:15;10;9;7
44871;PMS7003;30602;51.060;17.226;2023-03-26T02:13:43;5;4;3
44871;PMS7003;30602;51.060;17.226;2023-03-26T02:17:26;8;8;6
44871;PMS7003;30602;51.060;17.226;2023-03-26T02:21:23;6;5;4
44871;PMS7003;30602;51.060;17.226;2023-03-26T02:25:07;7;7;6
44871;PMS7003;30602;51.060;17.226;2023-03-26T02:32:19;7;7;5
44871;PMS7003;30602;51.060;17.226;2023-03-26T02:36:22;9;8;6
44871;PMS7003;30602;51.060;17.226;2023-03-26T02:40:06;9;6;5
44871;PMS7003;30602;51.060;17.226;2023-03-26T02:43:32;8;7;6
44871;PMS7003;30602;51.060;17.226;2023-03-26T02:47:05;10;9;8
44871;PMS7003;30602;51.060;17.226;2023-03-26T02:50:40;7;7;6
44871;PMS7003;30602;51.060;17.226;2023-03-26T02:54:20;9;7;6
44871;PMS7003;30602;51.060;17.226;2023-03-26T02:57:42;8;7;6
44871;PMS7003;30602;51.060;17.226;2023-03-26T03:01:36;7;7;4
44871;PMS7003;30602;51.060;17.226;2023-03-26T03:05:44;8;7;6
44871;PMS7003;30602;51.060;17.226;2023-03-26T03:09:10;9;8;7
44871;PMS7003;30602;51.060;17.226;2023-03-26T03:12:55;8;6;5
44871;PMS7003;30602;51.060;17.226;2023-03-26T03:16:36;6;6;4
44871;PMS7003;30602;51.060;17.226;2023-03-26T03:19:58;11;9;6
44871;PMS7003;30602;51.060;17.226;2023-03-26T03:23:53;8;8;7
44871;PMS7003;30602;51.060;17.226;2023-03-26T03:27:35;7;7;6
44871;PMS7003;30602;51.060;17.226;2023-03-26T03:31:21;7;7;6
44871;PMS7003;30602;51.060;17.226;2023-03-26T03:35:27;9;9;7
44871;PMS7003;30602;51.060;17.226;2023-03-26T03:39:06;11;8;7
44871;PMS7003;30602;51.060;17.226;2023-03-26T03:42:50;8;7;6
44871;PMS7003;30602;51.060;17.226;2023-03-26T03:46:31;11;7;6
44871;PMS7003;30602;51.060;17.226;2023-03-26T03:50:13;7;7;5
44871;PMS7003;30602;51.060;17.226;2023-03-26T03:54:00;8;5;4
44871;PMS7003;30602;51.060;17.226;2023-03-26T03:57:43;6;6;5
44871;PMS7003;30602;51.060;17.226;2023-03-26T04:02:09;8;7;6
44871;PMS7003;30602;51.060;17.226;2023-03-26T04:05:49;6;5;4
44871;PMS7003;30602;51.060;17.226;2023-03-26T04:09:29;6;5;4
44871;PMS7003;30602;51.060;17.226;2023-03-26T04:13:55;4;4;3
44871;PMS7003;30602;51.060;17.226;2023-03-26T04:17:48;5;4;3
44871;PMS7003;30602;51.060;17.226;2023-03-26T04:21:23;6;5;4
44871;PMS7003;30602;51.060;17.226;2023-03-26T04:24:48;6;4;4
44871;PMS7003;30602;51.060;17.226;2023-03-26T04:29:04;4;3;3
44871;PMS7003;30602;51.060;17.226;2023-03-26T04:32:46;4;4;3
44871;PMS7003;30602;51.060;17.226;2023-03-26T04:36:27;2;2;2
44871;PMS7003;30602;51.060;17.226;2023-03-26T04:39:50;1;1;1
44871;PMS7003;30602;51.060;17.226;2023-03-26T04:43:46;0;0;0
44871;PMS7003;30602;51.060;17.226;2023-03-26T04:47:20;1;1;1
44871;PMS7003;30602;51.060;17.226;2023-03-26T04:51:42;2;0;0
44871;PMS7003;30602;51.060;17.226;2023-03-26T04:59:17;0;0;0
44871;PMS7003;30602;51.060;17.226;2023-03-26T05:03:39;0;0;0
44871;PMS7003;30602;51.060;17.226;2023-03-26T05:07:21;1;1;0
44871;PMS7003;30602;51.060;17.226;2023-03-26T05:11:36;0;0;0
44871;PMS7003;30602;51.060;17.226;2023-03-26T05:15:15;0;0;0
44871;PMS7003;30602;51.060;17.226;2023-03-26T05:19:12;0;0;0
44871;PMS7003;30602;51.060;17.226;2023-03-26T05:22:51;0;0;0
44871;PMS7003;30602;51.060;17.226;2023-03-26T05:26:31;0;0;0
44871;PMS7003;30602;51.060;17.226;2023-03-26T05:30:15;0;0;0
44871;PMS7003;30602;51.060;17.226;2023-03-26T05:33:39;0;0;0
44871;PMS7003;30602;51.060;17.226;2023-03-26T05:41:11;0;0;0
44871;PMS7003;30602;51.060;17.226;2023-03-26T05:45:24;0;0;0
44871;PMS7003;30602;51.060;17.226;2023-03-26T05:49:08;0;0;0
44871;PMS7003;30602;51.060;17.226;2023-03-26T05:52:40;0;0;0
44871;PMS7003;30602;51.060;17.226;2023-03-26T05:56:23;0;0;0
44871;PMS7003;30602;51.060;17.226;2023-03-26T05:59:41;3;3;2
44871;PMS7003;30602;51.060;17.226;2023-03-26T06:03:36;0;0;0
44871;PMS7003;30602;51.060;17.226;2023-03-26T06:10:56;1;0;0
44871;PMS7003;30602;51.060;17.226;2023-03-26T06:14:23;1;1;1
44871;PMS7003;30602;51.060;17.226;2023-03-26T06:17:42;2;2;1
44871;PMS7003;30602;51.060;17.226;2023-03-26T06:21:01;2;1;1
44871;PMS7003;30602;51.060;17.226;2023-03-26T06:24:55;4;4;3
44871;PMS7003;30602;51.060;17.226;2023-03-26T06:32:31;5;5;4
44871;PMS7003;30602;51.060;17.226;2023-03-26T06:36:58;16;15;11
44871;PMS7003;30602;51.060;17.226;2023-03-26T06:40:36;18;15;10
44871;PMS7003;30602;51.060;17.226;2023-03-26T06:44:06;28;24;15
44871;PMS7003;30602;51.060;17.226;2023-03-26T06:47:50;18;15;11
44871;PMS7003;30602;51.060;17.226;2023-03-26T06:51:40;15;12;8
44871;PMS7003;30602;51.060;17.226;2023-03-26T06:55:25;4;4;3
44871;PMS7003;30602;51.060;17.226;2023-03-26T06:58:56;1;1;1
44871;PMS7003;30602;51.060;17.226;2023-03-26T07:02:27;4;4;2
44871;PMS7003;30602;51.060;17.226;2023-03-26T07:06:17;2;2;1
44871;PMS7003;30602;51.060;17.226;2023-03-26T07:10:21;4;4;3
44871;PMS7003;30602;51.060;17.226;2023-03-26T07:14:04;3;3;2
44871;PMS7003;30602;51.060;17.226;2023-03-26T07:17:54;1;0;0
44871;PMS7003;30602;51.060;17.226;2023-03-26T07:21:50;6;6;5
44871;PMS7003;30602;51.060;17.226;2023-03-26T07:25:14;7;6;4
44871;PMS7003;30602;51.060;17.226;2023-03-26T07:29:01;6;5;4
44871;PMS7003;30602;51.060;17.226;2023-03-26T07:47:33;0;0;0
44871;PMS7003;30602;51.060;17.226;2023-03-26T07:51:29;0;0;0
44871;PMS7003;30602;51.060;17.226;2023-03-26T07:54:51;1;0;0
44871;PMS7003;30602;51.060;17.226;2023-03-26T08:10:00;5;2;1
44871;PMS7003;30602;51.060;17.226;2023-03-26T08:21:22;1;1;1
44871;PMS7003;30602;51.060;17.226;2023-03-26T08:25:13;6;6;5
44871;PMS7003;30602;51.060;17.226;2023-03-26T08:32:32;2;2;1
44871;PMS7003;30602;51.060;17.226;2023-03-26T08:35:54;5;2;1
44871;PMS7003;30602;51.060;17.226;2023-03-26T08:39:37;2;2;1
44871;PMS7003;30602;51.060;17.226;2023-03-26T08:43:38;3;2;2
44871;PMS7003;30602;51.060;17.226;2023-03-26T09:53:24;1;1;0
44871;PMS7003;30602;51.060;17.226;2023-03-26T09:57:19;3;0;0
44871;PMS7003;30602;51.060;17.226;2023-03-26T10:01:04;1;1;0
44871;PMS7003;30602;51.060;17.226;2023-03-26T10:12:43;2;1;1
44871;PMS7003;30602;51.060;17.226;2023-03-26T10:27:48;2;2;2
44871;PMS7003;30602;51.060;17.226;2023-03-26T10:31:50;1;1;1
44871;PMS7003;30602;51.060;17.226;2023-03-26T10:58:24;6;6;5
44871;PMS7003;30602;51.060;17.226;2023-03-26T11:18:23;3;2;1
44871;PMS7003;30602;51.060;17.226;2023-03-26T11:29:55;0;0;0
44871;PMS7003;30602;51.060;17.226;2023-03-26T11:34:22;3;2;1
44871;PMS7003;30602;51.060;17.226;2023-03-26T11:38:27;3;3;2
44871;PMS7003;30602;51.060;17.226;2023-03-26T11:45:45;3;2;1
44871;PMS7003;30602;51.060;17.226;2023-03-26T11:49:32;3;2;2
44871;PMS7003;30602;51.060;17.226;2023-03-26T11:53:01;6;3;3
44871;PMS7003;30602;51.060;17.226;2023-03-26T11:56:47;3;2;2
44871;PMS7003;30602;51.060;17.226;2023-03-26T12:00:27;4;4;2
44871;PMS7003;30602;51.060;17.226;2023-03-26T12:04:10;2;2;2
44871;PMS7003;30602;51.060;17.226;2023-03-26T12:07:41;1;1;1
44871;PMS7003;30602;51.060;17.226;2023-03-26T12:12:02;2;1;1
44871;PMS7003;30602;51.060;17.226;2023-03-26T12:15:43;1;1;1
44871;PMS7003;30602;51.060;17.226;2023-03-26T12:19:05;1;1;1
44871;PMS7003;30602;51.060;17.226;2023-03-26T12:22:37;2;1;1
44871;PMS7003;30602;51.060;17.226;2023-03-26T12:26:45;2;2;2
44871;PMS7003;30602;51.060;17.226;2023-03-26T12:30:27;8;6;5
44871;PMS7003;30602;51.060;17.226;2023-03-26T12:34:14;5;3;2
44871;PMS7003;30602;51.060;17.226;2023-03-26T12:45:42;4;3;2
44871;PMS7003;30602;51.060;17.226;2023-03-26T12:49:46;8;5;4
44871;PMS7003;30602;51.060;17.226;2023-03-26T12:57:36;11;11;9
44871;PMS7003;30602;51.060;17.226;2023-03-26T13:04:51;5;4;2
44871;PMS7003;30602;51.060;17.226;2023-03-26T13:28:38;6;6;5
44871;PMS7003;30602;51.060;17.226;2023-03-26T13:49:11;5;4;3
44871;PMS7003;30602;51.060;17.226;2023-03-26T14:05:34;9;6;5
44871;PMS7003;30602;51.060;17.226;2023-03-26T14:09:25;8;5;4
44871;PMS7003;30602;51.060;17.226;2023-03-26T14:28:57;5;5;3
44871;PMS7003;30602;51.060;17.226;2023-03-26T14:33:01;6;6;5
44871;PMS7003;30602;51.060;17.226;2023-03-26T15:10:45;10;6;5
44871;PMS7003;30602;51.060;17.226;2023-03-26T15:28:41;5;5;4
44871;PMS7003;30602;51.060;17.226;2023-03-26T15:35:49;6;5;4
44871;PMS7003;30602;51.060;17.226;2023-03-26T15:39:28;14;12;8
44871;PMS7003;30602;51.060;17.226;2023-03-26T15:54:59;8;8;6
44871;PMS7003;30602;51.060;17.226;2023-03-26T15:58:33;4;4;4
44871;PMS7003;30602;51.060;17.226;2023-03-26T16:11:01;4;3;3
44871;PMS7003;30602;51.060;17.226;2023-03-26T16:18:58;2;2;2
44871;PMS7003;30602;51.060;17.226;2023-03-26T16:23:00;4;3;3
44871;PMS7003;30602;51.060;17.226;2023-03-26T16:30:38;6;4;2
44871;PMS7003;30602;51.060;17.226;2023-03-26T16:38:22;4;4;3
44871;PMS7003;30602;51.060;17.226;2023-03-26T16:42:44;2;2;2
44871;PMS7003;30602;51.060;17.226;2023-03-26T17:03:16;22;20;15
44871;PMS7003;30602;51.060;17.226;2023-03-26T17:26:48;40;31;23
44871;PMS7003;30602;51.060;17.226;2023-03-26T17:50:56;28;25;19
44871;PMS7003;30602;51.060;17.226;2023-03-26T17:54:50;32;27;20
44871;PMS7003;30602;51.060;17.226;2023-03-26T17:58:34;34;30;22
44871;PMS7003;30602;51.060;17.226;2023-03-26T18:02:15;26;25;19
44871;PMS7003;30602;51.060;17.226;2023-03-26T18:06:27;34;28;19
44871;PMS7003;30602;51.060;17.226;2023-03-26T18:10:13;50;41;25
44871;PMS7003;30602;51.060;17.226;2023-03-26T18:18:34;28;23;15
44871;PMS7003;30602;51.060;17.226;2023-03-26T18:22:05;28;23;15
44871;PMS7003;30602;51.060;17.226;2023-03-26T18:29:42;34;27;17
44871;PMS7003;30602;51.060;17.226;2023-03-26T18:36:40;12;11;9
44871;PMS7003;30602;51.060;17.226;2023-03-26T18:40:38;10;9;8
44871;PMS7003;30602;51.060;17.226;2023-03-26T18:44:03;13;10;8
44871;PMS7003;30602;51.060;17.226;2023-03-26T18:47:52;28;22;14
44871;PMS7003;30602;51.060;17.226;2023-03-26T18:51:44;35;32;18
44871;PMS7003;30602;51.060;17.226;2023-03-26T19:00:16;54;44;22
44871;PMS7003;30602;51.060;17.226;2023-03-26T19:04:15;29;28;18
44871;PMS7003;30602;51.060;17.226;2023-03-26T19:07:38;14;12;8
44871;PMS7003;30602;51.060;17.226;2023-03-26T19:11:19;9;8;6
44871;PMS7003;30602;51.060;17.226;2023-03-26T19:15:10;12;11;7
44871;PMS7003;30602;51.060;17.226;2023-03-26T19:18:48;15;13;8
44871;PMS7003;30602;51.060;17.226;2023-03-26T19:22:33;28;22;13
44871;PMS7003;30602;51.060;17.226;2023-03-26T19:26:05;21;18;12
44871;PMS7003;30602;51.060;17.226;2023-03-26T19:30:33;14;13;10
44871;PMS7003;30602;51.060;17.226;2023-03-26T19:34:22;13;13;9
44871;PMS7003;30602;51.060;17.226;2023-03-26T19:37:58;15;12;8
44871;PMS7003;30602;51.060;17.226;2023-03-26T19:42:03;12;11;8
44871;PMS7003;30602;51.060;17.226;2023-03-26T19:45:59;10;10;7
44871;PMS7003;30602;51.060;17.226;2023-03-26T19:49:53;7;6;5
44871;PMS7003;30602;51.060;17.226;2023-03-26T19:53:42;17;13;8
44871;PMS7003;30602;51.060;17.226;2023-03-26T19:57:08;12;11;8
44871;PMS7003;30602;51.060;17.226;2023-03-26T20:00:29;10;10;7
44871;PMS7003;30602;51.060;17.226;2023-03-26T20:04:01;10;8;6
44871;PMS7003;30602;51.060;17.226;2023-03-26T20:07:39;12;10;8
44871;PMS7003;30602;51.060;17.226;2023-03-26T20:12:12;11;8;7
44871;PMS7003;30602;51.060;17.226;2023-03-26T20:15:41;11;9;7
44871;PMS7003;30602;51.060;17.226;2023-03-26T20:19:12;13;13;10
44871;PMS7003;30602;51.060;17.226;2023-03-26T20:22:38;29;28;16
44871;PMS7003;30602;51.060;17.226;2023-03-26T20:26:38;21;16;12
44871;PMS7003;30602;51.060;17.226;2023-03-26T20:30:24;32;27;15
44871;PMS7003;30602;51.060;17.226;2023-03-26T20:33:48;19;15;12
44871;PMS7003;30602;51.060;17.226;2023-03-26T20:37:29;18;15;10
44871;PMS7003;30602;51.060;17.226;2023-03-26T20:40:54;15;15;13
44871;PMS7003;30602;51.060;17.226;2023-03-26T20:44:38;21;20;14
44871;PMS7003;30602;51.060;17.226;2023-03-26T20:48:08;29;26;17
44871;PMS7003;30602;51.060;17.226;2023-03-26T20:51:31;32;27;19
44871;PMS7003;30602;51.060;17.226;2023-03-26T20:55:00;34;29;20
44871;PMS7003;30602;51.060;17.226;2023-03-26T20:59:08;28;25;18
44871;PMS7003;30602;51.060;17.226;2023-03-26T21:02:38;29;26;18
44871;PMS7003;30602;51.060;17.226;2023-03-26T21:06:04;27;25;18
44871;PMS7003;30602;51.060;17.226;2023-03-26T21:09:42;27;27;18
44871;PMS7003;30602;51.060;17.226;2023-03-26T21:17:22;36;31;21
44871;PMS7003;30602;51.060;17.226;2023-03-26T21:28:56;52;43;28
44871;PMS7003;30602;51.060;17.226;2023-03-26T21:32:27;61;49;30
44871;PMS7003;30602;51.060;17.226;2023-03-26T21:36:14;54;42;27
44871;PMS7003;30602;51.060;17.226;2023-03-26T21:39:59;26;24;15
44871;PMS7003;30602;51.060;17.226;2023-03-26T21:43:33;29;28;17
44871;PMS7003;30602;51.060;17.226;2023-03-26T21:46:58;27;25;19
44871;PMS7003;30602;51.060;17.226;2023-03-26T21:50:20;40;32;21
44871;PMS7003;30602;51.060;17.226;2023-03-26T21:54:31;27;25;17
44871;PMS7003;30602;51.060;17.226;2023-03-26T21:58:12;24;23;17
44871;PMS7003;30602;51.060;17.226;2023-03-26T22:10:26;33;28;18
44871;PMS7003;30602;51.060;17.226;2023-03-26T22:14:17;31;26;18
44871;PMS7003;30602;51.060;17.226;2023-03-26T22:17:40;28;23;16
44871;PMS7003;30602;51.060;17.226;2023-03-26T22:21:23;31;29;20
44871;PMS7003;30602;51.060;17.226;2023-03-26T22:25:43;30;27;21
44871;PMS7003;30602;51.060;17.226;2023-03-26T22:29:50;28;26;17
44871;PMS7003;30602;51.060;17.226;2023-03-26T22:33:29;29;24;17
44871;PMS7003;30602;51.060;17.226;2023-03-26T22:37:19;71;55;33
44871;PMS7003;30602;51.060;17.226;2023-03-26T22:40:55;49;41;25
44871;PMS7003;30602;51.060;17.226;2023-03-26T22:44:43;46;40;26
44871;PMS7003;30602;51.060;17.226;2023-03-26T22:48:25;30;24;18
44871;PMS7003;30602;51.060;17.226;2023-03-26T22:52:21;33;30;21
44871;PMS7003;30602;51.060;17.226;2023-03-26T22:56:04;37;33;25
44871;PMS7003;30602;51.060;17.226;2023-03-26T22:59:27;25;24;19
44871;PMS7003;30602;51.060;17.226;2023-03-26T23:02:56;30;28;18
44871;PMS7003;30602;51.060;17.226;2023-03-26T23:06:40;27;24;18
44871;PMS7003;30602;51.060;17.226;2023-03-26T23:10:39;30;29;18
44871;PMS7003;30602;51.060;17.226;2023-03-26T23:14:02;33;29;22
44871;PMS7003;30602;51.060;17.226;2023-03-26T23:17:43;36;34;24
44871;PMS7003;30602;51.060;17.226;2023-03-26T23:21:53;43;37;27
44871;PMS7003;30602;51.060;17.226;2023-03-26T23:25:50;45;37;23
44871;PMS7003;30602;51.060;17.226;2023-03-26T23:29:34;46;37;24
44871;PMS7003;30602;51.060;17.226;2023-03-26T23:33:32;35;33;22
44871;PMS7003;30602;51.060;17.226;2023-03-26T23:36:59;39;34;23
44871;PMS7003;30602;51.060;17.226;2023-03-26T23:48:38;39;36;25
44871;PMS7003;30602;51.060;17.226;2023-03-26T23:52:41;43;38;25
44871;PMS7003;30602;51.060;17.226;2023-03-26T23:56:30;46;39;27
